sensor_id;sensor_type;location;lat;lon;timestamp;P1;durP1;ratioP1;P2;durP2;ratioP2
21727;SDS011;11026;50.560;17.852;2022-08-01T00:01:28;6.30;;;3.90;;
21727;SDS011;11026;50.560;17.852;2022-08-01T00:04:09;5.18;;;3.83;;
21727;SDS011;11026;50.560;17.852;2022-08-01T00:06:38;4.40;;;4.00;;
21727;SDS011;11026;50.560;17.852;2022-08-01T00:09:05;4.97;;;4.10;;
21727;SDS011;11026;50.560;17.852;2022-08-01T00:14:10;5.05;;;4.07;;
21727;SDS011;11026;50.560;17.852;2022-08-01T00:19:49;4.63;;;3.95;;
21727;SDS011;11026;50.560;17.852;2022-08-01T00:24:55;4.28;;;3.88;;
21727;SDS011;11026;50.560;17.852;2022-08-01T00:27:40;6.45;;;4.20;;
21727;SDS011;11026;50.560;17.852;2022-08-01T00:30:07;4.15;;;3.78;;
21727;SDS011;11026;50.560;17.852;2022-08-01T00:32:41;7.15;;;4.10;;
21727;SDS011;11026;50.560;17.852;2022-08-01T00:40:53;7.43;;;6.70;;
21727;SDS011;11026;50.560;17.852;2022-08-01T00:43:23;12.10;;;10.73;;
21727;SDS011;11026;50.560;17.852;2022-08-01T00:51:05;5.30;;;4.80;;
21727;SDS011;11026;50.560;17.852;2022-08-01T00:53:44;5.93;;;5.38;;
21727;SDS011;11026;50.560;17.852;2022-08-01T00:56:27;6.07;;;5.57;;
21727;SDS011;11026;50.560;17.852;2022-08-01T00:59:00;5.53;;;4.53;;
21727;SDS011;11026;50.560;17.852;2022-08-01T01:01:36;6.40;;;4.93;;
21727;SDS011;11026;50.560;17.852;2022-08-01T01:04:14;6.05;;;5.10;;
21727;SDS011;11026;50.560;17.852;2022-08-01T01:12:44;6.95;;;5.40;;
21727;SDS011;11026;50.560;17.852;2022-08-01T01:18:35;7.30;;;5.22;;
21727;SDS011;11026;50.560;17.852;2022-08-01T01:30:49;5.82;;;5.32;;
21727;SDS011;11026;50.560;17.852;2022-08-01T01:33:21;10.50;;;6.22;;
21727;SDS011;11026;50.560;17.852;2022-08-01T01:35:52;7.45;;;6.43;;
21727;SDS011;11026;50.560;17.852;2022-08-01T01:38:40;6.60;;;6.00;;
21727;SDS011;11026;50.560;17.852;2022-08-01T01:41:14;6.75;;;6.15;;
21727;SDS011;11026;50.560;17.852;2022-08-01T01:43:46;7.22;;;5.50;;
21727;SDS011;11026;50.560;17.852;2022-08-01T01:46:17;6.65;;;5.80;;
21727;SDS011;11026;50.560;17.852;2022-08-01T01:48:57;7.28;;;6.25;;
21727;SDS011;11026;50.560;17.852;2022-08-01T01:51:27;6.78;;;6.07;;
21727;SDS011;11026;50.560;17.852;2022-08-01T01:56:46;6.10;;;5.60;;
21727;SDS011;11026;50.560;17.852;2022-08-01T02:02:14;7.45;;;4.68;;
21727;SDS011;11026;50.560;17.852;2022-08-01T02:07:22;10.68;;;4.85;;
21727;SDS011;11026;50.560;17.852;2022-08-01T02:09:58;7.53;;;5.95;;
21727;SDS011;11026;50.560;17.852;2022-08-01T02:12:33;8.00;;;4.93;;
21727;SDS011;11026;50.560;17.852;2022-08-01T02:15:04;5.88;;;5.22;;
21727;SDS011;11026;50.560;17.852;2022-08-01T02:17:32;5.55;;;4.95;;
21727;SDS011;11026;50.560;17.852;2022-08-01T02:20:04;6.80;;;4.90;;
21727;SDS011;11026;50.560;17.852;2022-08-01T02:22:40;7.90;;;5.50;;
21727;SDS011;11026;50.560;17.852;2022-08-01T02:25:10;4.97;;;4.53;;
21727;SDS011;11026;50.560;17.852;2022-08-01T02:27:52;7.00;;;5.07;;
21727;SDS011;11026;50.560;17.852;2022-08-01T02:30:30;7.83;;;5.33;;
21727;SDS011;11026;50.560;17.852;2022-08-01T02:33:19;5.93;;;5.18;;
21727;SDS011;11026;50.560;17.852;2022-08-01T02:35:51;5.30;;;4.90;;
21727;SDS011;11026;50.560;17.852;2022-08-01T02:38:58;5.78;;;4.82;;
21727;SDS011;11026;50.560;17.852;2022-08-01T02:41:36;5.90;;;5.28;;
21727;SDS011;11026;50.560;17.852;2022-08-01T02:44:09;6.80;;;5.35;;
21727;SDS011;11026;50.560;17.852;2022-08-01T02:47:03;6.03;;;4.80;;
21727;SDS011;11026;50.560;17.852;2022-08-01T02:58:19;8.27;;;5.25;;
21727;SDS011;11026;50.560;17.852;2022-08-01T03:01:05;5.53;;;4.88;;
21727;SDS011;11026;50.560;17.852;2022-08-01T03:03:36;5.40;;;4.82;;
21727;SDS011;11026;50.560;17.852;2022-08-01T03:06:10;5.00;;;4.30;;
21727;SDS011;11026;50.560;17.852;2022-08-01T03:17:19;8.23;;;4.50;;
21727;SDS011;11026;50.560;17.852;2022-08-01T03:19:52;5.18;;;4.68;;
21727;SDS011;11026;50.560;17.852;2022-08-01T03:24:54;7.43;;;5.70;;
21727;SDS011;11026;50.560;17.852;2022-08-01T03:27:37;7.57;;;6.88;;
21727;SDS011;11026;50.560;17.852;2022-08-01T03:30:07;13.27;;;6.20;;
21727;SDS011;11026;50.560;17.852;2022-08-01T03:32:36;6.95;;;5.75;;
21727;SDS011;11026;50.560;17.852;2022-08-01T03:35:04;9.52;;;5.93;;
21727;SDS011;11026;50.560;17.852;2022-08-01T03:43:26;7.90;;;4.35;;
21727;SDS011;11026;50.560;17.852;2022-08-01T03:46:07;5.43;;;4.93;;
21727;SDS011;11026;50.560;17.852;2022-08-01T03:48:39;4.93;;;4.53;;
21727;SDS011;11026;50.560;17.852;2022-08-01T03:51:16;6.28;;;4.75;;
21727;SDS011;11026;50.560;17.852;2022-08-01T03:58:49;7.43;;;5.43;;
21727;SDS011;11026;50.560;17.852;2022-08-01T04:01:17;5.63;;;4.93;;
21727;SDS011;11026;50.560;17.852;2022-08-01T04:06:38;6.97;;;5.32;;
21727;SDS011;11026;50.560;17.852;2022-08-01T04:14:37;6.57;;;5.65;;
21727;SDS011;11026;50.560;17.852;2022-08-01T04:20:11;9.18;;;5.72;;
21727;SDS011;11026;50.560;17.852;2022-08-01T04:25:24;6.63;;;5.93;;
21727;SDS011;11026;50.560;17.852;2022-08-01T04:30:40;6.32;;;5.32;;
21727;SDS011;11026;50.560;17.852;2022-08-01T04:38:39;10.85;;;5.95;;
21727;SDS011;11026;50.560;17.852;2022-08-01T04:41:09;8.48;;;5.95;;
21727;SDS011;11026;50.560;17.852;2022-08-01T04:43:57;6.78;;;5.82;;
21727;SDS011;11026;50.560;17.852;2022-08-01T04:46:36;6.93;;;6.20;;
21727;SDS011;11026;50.560;17.852;2022-08-01T04:49:05;7.15;;;5.85;;
21727;SDS011;11026;50.560;17.852;2022-08-01T04:51:35;11.75;;;7.97;;
21727;SDS011;11026;50.560;17.852;2022-08-01T04:54:02;10.50;;;8.43;;
21727;SDS011;11026;50.560;17.852;2022-08-01T04:56:32;7.20;;;6.00;;
21727;SDS011;11026;50.560;17.852;2022-08-01T04:59:00;7.00;;;6.30;;
21727;SDS011;11026;50.560;17.852;2022-08-01T05:01:50;6.15;;;5.57;;
21727;SDS011;11026;50.560;17.852;2022-08-01T05:04:19;6.45;;;5.15;;
21727;SDS011;11026;50.560;17.852;2022-08-01T05:06:46;6.10;;;5.18;;
21727;SDS011;11026;50.560;17.852;2022-08-01T05:09:13;8.05;;;7.28;;
21727;SDS011;11026;50.560;17.852;2022-08-01T05:11:47;6.45;;;5.32;;
21727;SDS011;11026;50.560;17.852;2022-08-01T05:14:16;6.35;;;5.57;;
21727;SDS011;11026;50.560;17.852;2022-08-01T05:16:59;7.47;;;6.57;;
21727;SDS011;11026;50.560;17.852;2022-08-01T05:28:38;6.20;;;5.70;;
21727;SDS011;11026;50.560;17.852;2022-08-01T05:34:06;6.50;;;5.50;;
21727;SDS011;11026;50.560;17.852;2022-08-01T05:42:11;5.82;;;5.32;;
21727;SDS011;11026;50.560;17.852;2022-08-01T05:44:39;5.50;;;5.00;;
21727;SDS011;11026;50.560;17.852;2022-08-01T05:47:15;5.07;;;4.60;;
21727;SDS011;11026;50.560;17.852;2022-08-01T05:49:56;4.72;;;4.30;;
21727;SDS011;11026;50.560;17.852;2022-08-01T05:55:12;5.00;;;3.78;;
21727;SDS011;11026;50.560;17.852;2022-08-01T05:57:46;6.68;;;4.20;;
21727;SDS011;11026;50.560;17.852;2022-08-01T06:00:20;6.57;;;3.88;;
21727;SDS011;11026;50.560;17.852;2022-08-01T06:08:19;5.18;;;3.85;;
21727;SDS011;11026;50.560;17.852;2022-08-01T06:10:53;6.05;;;3.80;;
21727;SDS011;11026;50.560;17.852;2022-08-01T06:13:20;5.80;;;3.72;;
21727;SDS011;11026;50.560;17.852;2022-08-01T06:15:49;5.20;;;3.80;;
21727;SDS011;11026;50.560;17.852;2022-08-01T06:18:22;6.38;;;4.15;;
21727;SDS011;11026;50.560;17.852;2022-08-01T06:20:59;6.75;;;3.92;;
21727;SDS011;11026;50.560;17.852;2022-08-01T06:28:49;4.47;;;3.92;;
21727;SDS011;11026;50.560;17.852;2022-08-01T06:31:17;6.18;;;3.78;;
21727;SDS011;11026;50.560;17.852;2022-08-01T06:36:33;5.90;;;5.30;;
21727;SDS011;11026;50.560;17.852;2022-08-01T06:39:02;6.20;;;4.53;;
21727;SDS011;11026;50.560;17.852;2022-08-01T06:41:30;6.95;;;4.13;;
21727;SDS011;11026;50.560;17.852;2022-08-01T06:43:59;5.30;;;4.80;;
21727;SDS011;11026;50.560;17.852;2022-08-01T06:49:03;20.40;;;11.55;;
21727;SDS011;11026;50.560;17.852;2022-08-01T06:54:05;10.48;;;5.53;;
21727;SDS011;11026;50.560;17.852;2022-08-01T06:59:31;4.78;;;4.18;;
21727;SDS011;11026;50.560;17.852;2022-08-01T07:02:10;6.25;;;4.68;;
21727;SDS011;11026;50.560;17.852;2022-08-01T07:07:40;5.03;;;4.53;;
21727;SDS011;11026;50.560;17.852;2022-08-01T07:10:07;6.20;;;4.97;;
21727;SDS011;11026;50.560;17.852;2022-08-01T07:15:19;4.70;;;4.30;;
21727;SDS011;11026;50.560;17.852;2022-08-01T07:17:54;20.90;;;7.90;;
21727;SDS011;11026;50.560;17.852;2022-08-01T07:20:22;5.10;;;4.32;;
21727;SDS011;11026;50.560;17.852;2022-08-01T07:22:51;5.95;;;4.60;;
21727;SDS011;11026;50.560;17.852;2022-08-01T07:25:18;6.82;;;4.97;;
21727;SDS011;11026;50.560;17.852;2022-08-01T07:27:46;9.02;;;5.07;;
21727;SDS011;11026;50.560;17.852;2022-08-01T07:30:14;6.15;;;4.40;;
21727;SDS011;11026;50.560;17.852;2022-08-01T07:32:43;5.47;;;4.95;;
21727;SDS011;11026;50.560;17.852;2022-08-01T07:35:10;8.38;;;4.82;;
21727;SDS011;11026;50.560;17.852;2022-08-01T07:37:37;6.78;;;4.70;;
21727;SDS011;11026;50.560;17.852;2022-08-01T07:40:20;7.80;;;4.80;;
21727;SDS011;11026;50.560;17.852;2022-08-01T07:42:55;5.10;;;4.60;;
21727;SDS011;11026;50.560;17.852;2022-08-01T07:48:03;8.55;;;6.00;;
21727;SDS011;11026;50.560;17.852;2022-08-01T07:53:11;6.85;;;5.18;;
21727;SDS011;11026;50.560;17.852;2022-08-01T07:55:45;8.10;;;5.00;;
21727;SDS011;11026;50.560;17.852;2022-08-01T08:03:42;5.93;;;4.53;;
21727;SDS011;11026;50.560;17.852;2022-08-01T08:06:09;5.55;;;5.05;;
21727;SDS011;11026;50.560;17.852;2022-08-01T08:08:50;6.05;;;5.45;;
21727;SDS011;11026;50.560;17.852;2022-08-01T08:14:04;7.32;;;5.15;;
21727;SDS011;11026;50.560;17.852;2022-08-01T08:16:31;5.38;;;4.68;;
21727;SDS011;11026;50.560;17.852;2022-08-01T08:18:58;10.02;;;5.85;;
21727;SDS011;11026;50.560;17.852;2022-08-01T08:21:27;6.03;;;5.43;;
21727;SDS011;11026;50.560;17.852;2022-08-01T08:24:00;7.47;;;5.25;;
21727;SDS011;11026;50.560;17.852;2022-08-01T08:26:58;6.03;;;4.85;;
21727;SDS011;11026;50.560;17.852;2022-08-01T08:35:07;6.50;;;4.82;;
21727;SDS011;11026;50.560;17.852;2022-08-01T08:40:20;5.95;;;5.35;;
21727;SDS011;11026;50.560;17.852;2022-08-01T08:42:53;10.50;;;8.27;;
21727;SDS011;11026;50.560;17.852;2022-08-01T08:48:26;19.98;;;13.45;;
21727;SDS011;11026;50.560;17.852;2022-08-01T08:51:02;5.82;;;4.80;;
21727;SDS011;11026;50.560;17.852;2022-08-01T08:56:21;15.10;;;5.43;;
21727;SDS011;11026;50.560;17.852;2022-08-01T08:58:54;6.68;;;4.90;;
21727;SDS011;11026;50.560;17.852;2022-08-01T09:01:41;5.68;;;5.18;;
21727;SDS011;11026;50.560;17.852;2022-08-01T09:04:11;9.73;;;5.00;;
21727;SDS011;11026;50.560;17.852;2022-08-01T09:06:47;6.00;;;5.40;;
21727;SDS011;11026;50.560;17.852;2022-08-01T09:12:19;4.88;;;4.47;;
21727;SDS011;11026;50.560;17.852;2022-08-01T09:14:54;5.82;;;4.85;;
21727;SDS011;11026;50.560;17.852;2022-08-01T09:17:23;5.03;;;4.53;;
21727;SDS011;11026;50.560;17.852;2022-08-01T09:20:00;5.03;;;4.63;;
21727;SDS011;11026;50.560;17.852;2022-08-01T09:22:34;6.07;;;4.90;;
21727;SDS011;11026;50.560;17.852;2022-08-01T09:28:15;5.57;;;4.90;;
21727;SDS011;11026;50.560;17.852;2022-08-01T09:30:43;5.95;;;5.22;;
21727;SDS011;11026;50.560;17.852;2022-08-01T09:33:25;6.40;;;4.95;;
21727;SDS011;11026;50.560;17.852;2022-08-01T09:35:57;7.05;;;4.60;;
21727;SDS011;11026;50.560;17.852;2022-08-01T09:38:36;7.32;;;5.00;;
21727;SDS011;11026;50.560;17.852;2022-08-01T09:41:09;7.15;;;5.00;;
21727;SDS011;11026;50.560;17.852;2022-08-01T09:43:39;6.82;;;5.30;;
21727;SDS011;11026;50.560;17.852;2022-08-01T09:46:15;6.05;;;4.88;;
21727;SDS011;11026;50.560;17.852;2022-08-01T09:49:00;5.50;;;5.03;;
21727;SDS011;11026;50.560;17.852;2022-08-01T09:51:42;6.22;;;5.25;;
21727;SDS011;11026;50.560;17.852;2022-08-01T09:54:30;7.85;;;4.72;;
21727;SDS011;11026;50.560;17.852;2022-08-01T09:57:13;4.97;;;4.53;;
21727;SDS011;11026;50.560;17.852;2022-08-01T09:59:45;4.78;;;4.35;;
21727;SDS011;11026;50.560;17.852;2022-08-01T10:02:29;5.43;;;4.70;;
21727;SDS011;11026;50.560;17.852;2022-08-01T10:05:04;5.38;;;4.82;;
21727;SDS011;11026;50.560;17.852;2022-08-01T10:10:39;6.53;;;4.10;;
21727;SDS011;11026;50.560;17.852;2022-08-01T10:13:18;5.28;;;4.57;;
21727;SDS011;11026;50.560;17.852;2022-08-01T10:21:00;5.88;;;4.30;;
21727;SDS011;11026;50.560;17.852;2022-08-01T10:23:35;7.05;;;4.22;;
21727;SDS011;11026;50.560;17.852;2022-08-01T10:26:06;4.70;;;4.30;;
21727;SDS011;11026;50.560;17.852;2022-08-01T10:28:48;4.80;;;4.30;;
21727;SDS011;11026;50.560;17.852;2022-08-01T10:33:57;4.85;;;4.35;;
21727;SDS011;11026;50.560;17.852;2022-08-01T10:36:27;5.22;;;4.40;;
21727;SDS011;11026;50.560;17.852;2022-08-01T10:38:57;7.60;;;3.92;;
21727;SDS011;11026;50.560;17.852;2022-08-01T10:41:30;4.90;;;4.07;;
21727;SDS011;11026;50.560;17.852;2022-08-01T10:44:09;6.22;;;3.60;;
21727;SDS011;11026;50.560;17.852;2022-08-01T10:46:38;5.03;;;3.53;;
21727;SDS011;11026;50.560;17.852;2022-08-01T10:49:15;7.90;;;3.65;;
21727;SDS011;11026;50.560;17.852;2022-08-01T10:51:45;6.65;;;3.50;;
21727;SDS011;11026;50.560;17.852;2022-08-01T10:54:19;4.25;;;3.55;;
21727;SDS011;11026;50.560;17.852;2022-08-01T10:56:51;4.53;;;3.97;;
21727;SDS011;11026;50.560;17.852;2022-08-01T10:59:24;5.28;;;4.05;;
21727;SDS011;11026;50.560;17.852;2022-08-01T11:05:19;4.20;;;3.80;;
21727;SDS011;11026;50.560;17.852;2022-08-01T11:10:51;4.85;;;3.78;;
21727;SDS011;11026;50.560;17.852;2022-08-01T11:16:41;6.50;;;3.80;;
21727;SDS011;11026;50.560;17.852;2022-08-01T11:27:30;3.80;;;3.15;;
21727;SDS011;11026;50.560;17.852;2022-08-01T11:38:46;3.97;;;3.10;;
21727;SDS011;11026;50.560;17.852;2022-08-01T11:41:28;3.42;;;3.10;;
21727;SDS011;11026;50.560;17.852;2022-08-01T11:44:07;3.35;;;3.05;;
21727;SDS011;11026;50.560;17.852;2022-08-01T11:46:58;3.38;;;2.83;;
21727;SDS011;11026;50.560;17.852;2022-08-01T11:55:09;3.47;;;3.17;;
21727;SDS011;11026;50.560;17.852;2022-08-01T11:57:38;5.80;;;3.60;;
21727;SDS011;11026;50.560;17.852;2022-08-01T12:02:43;6.15;;;3.42;;
21727;SDS011;11026;50.560;17.852;2022-08-01T12:05:14;4.63;;;3.20;;
21727;SDS011;11026;50.560;17.852;2022-08-01T12:10:50;4.85;;;3.00;;
21727;SDS011;11026;50.560;17.852;2022-08-01T12:13:39;6.25;;;3.65;;
21727;SDS011;11026;50.560;17.852;2022-08-01T12:16:09;3.80;;;3.50;;
21727;SDS011;11026;50.560;17.852;2022-08-01T12:18:41;3.90;;;3.50;;
21727;SDS011;11026;50.560;17.852;2022-08-01T12:21:10;3.30;;;3.08;;
21727;SDS011;11026;50.560;17.852;2022-08-01T12:23:37;4.35;;;3.55;;
21727;SDS011;11026;50.560;17.852;2022-08-01T12:26:04;4.57;;;3.45;;
21727;SDS011;11026;50.560;17.852;2022-08-01T12:28:42;4.00;;;2.97;;
21727;SDS011;11026;50.560;17.852;2022-08-01T12:31:30;3.42;;;3.13;;
21727;SDS011;11026;50.560;17.852;2022-08-01T12:36:57;4.90;;;3.10;;
21727;SDS011;11026;50.560;17.852;2022-08-01T12:42:04;5.10;;;2.83;;
21727;SDS011;11026;50.560;17.852;2022-08-01T12:44:37;5.07;;;3.30;;
21727;SDS011;11026;50.560;17.852;2022-08-01T12:47:12;4.35;;;3.28;;
21727;SDS011;11026;50.560;17.852;2022-08-01T12:49:52;3.40;;;3.10;;
21727;SDS011;11026;50.560;17.852;2022-08-01T12:52:20;3.13;;;2.72;;
21727;SDS011;11026;50.560;17.852;2022-08-01T12:57:38;3.30;;;3.00;;
21727;SDS011;11026;50.560;17.852;2022-08-01T13:00:10;5.05;;;3.05;;
21727;SDS011;11026;50.560;17.852;2022-08-01T13:08:20;3.22;;;2.55;;
21727;SDS011;11026;50.560;17.852;2022-08-01T13:11:05;3.72;;;2.88;;
21727;SDS011;11026;50.560;17.852;2022-08-01T13:13:46;4.18;;;2.70;;
21727;SDS011;11026;50.560;17.852;2022-08-01T13:16:18;5.30;;;2.60;;
21727;SDS011;11026;50.560;17.852;2022-08-01T13:24:29;4.25;;;2.90;;
21727;SDS011;11026;50.560;17.852;2022-08-01T13:26:58;2.60;;;2.40;;
21727;SDS011;11026;50.560;17.852;2022-08-01T13:29:43;3.17;;;2.97;;
21727;SDS011;11026;50.560;17.852;2022-08-01T13:32:30;2.83;;;2.63;;
21727;SDS011;11026;50.560;17.852;2022-08-01T13:35:04;6.15;;;3.00;;
21727;SDS011;11026;50.560;17.852;2022-08-01T13:37:35;3.45;;;2.85;;
21727;SDS011;11026;50.560;17.852;2022-08-01T13:40:06;3.28;;;2.80;;
21727;SDS011;11026;50.560;17.852;2022-08-01T13:42:40;2.92;;;2.70;;
21727;SDS011;11026;50.560;17.852;2022-08-01T13:45:10;4.18;;;3.38;;
21727;SDS011;11026;50.560;17.852;2022-08-01T13:47:40;5.63;;;3.30;;
21727;SDS011;11026;50.560;17.852;2022-08-01T13:50:29;5.70;;;3.42;;
21727;SDS011;11026;50.560;17.852;2022-08-01T13:55:32;6.55;;;3.22;;
21727;SDS011;11026;50.560;17.852;2022-08-01T13:58:06;5.20;;;3.80;;
21727;SDS011;11026;50.560;17.852;2022-08-01T14:00:37;4.72;;;4.10;;
21727;SDS011;11026;50.560;17.852;2022-08-01T14:03:04;5.40;;;4.72;;
21727;SDS011;11026;50.560;17.852;2022-08-01T14:08:05;4.35;;;3.70;;
21727;SDS011;11026;50.560;17.852;2022-08-01T14:10:41;6.97;;;4.05;;
21727;SDS011;11026;50.560;17.852;2022-08-01T14:13:10;4.30;;;3.60;;
21727;SDS011;11026;50.560;17.852;2022-08-01T14:15:39;2.90;;;2.70;;
21727;SDS011;11026;50.560;17.852;2022-08-01T14:18:09;4.10;;;3.53;;
21727;SDS011;11026;50.560;17.852;2022-08-01T14:20:43;3.20;;;2.90;;
21727;SDS011;11026;50.560;17.852;2022-08-01T14:25:42;3.63;;;3.33;;
21727;SDS011;11026;50.560;17.852;2022-08-01T14:33:41;3.38;;;3.08;;
21727;SDS011;11026;50.560;17.852;2022-08-01T14:36:17;3.55;;;3.10;;
21727;SDS011;11026;50.560;17.852;2022-08-01T14:38:58;2.97;;;2.67;;
21727;SDS011;11026;50.560;17.852;2022-08-01T14:44:02;3.35;;;2.83;;
21727;SDS011;11026;50.560;17.852;2022-08-01T14:49:08;4.15;;;2.90;;
21727;SDS011;11026;50.560;17.852;2022-08-01T14:51:40;4.65;;;3.20;;
21727;SDS011;11026;50.560;17.852;2022-08-01T14:54:07;3.53;;;3.20;;
21727;SDS011;11026;50.560;17.852;2022-08-01T14:56:37;3.58;;;3.28;;
21727;SDS011;11026;50.560;17.852;2022-08-01T15:01:58;3.33;;;2.97;;
21727;SDS011;11026;50.560;17.852;2022-08-01T15:04:38;3.10;;;2.80;;
21727;SDS011;11026;50.560;17.852;2022-08-01T15:07:06;3.42;;;3.13;;
21727;SDS011;11026;50.560;17.852;2022-08-01T15:09:46;3.80;;;3.25;;
21727;SDS011;11026;50.560;17.852;2022-08-01T15:12:19;4.20;;;3.10;;
21727;SDS011;11026;50.560;17.852;2022-08-01T15:14:46;4.63;;;3.08;;
21727;SDS011;11026;50.560;17.852;2022-08-01T15:17:24;3.40;;;3.08;;
21727;SDS011;11026;50.560;17.852;2022-08-01T15:19:55;3.50;;;3.20;;
21727;SDS011;11026;50.560;17.852;2022-08-01T15:25:00;4.45;;;3.80;;
21727;SDS011;11026;50.560;17.852;2022-08-01T15:27:29;4.22;;;3.63;;
21727;SDS011;11026;50.560;17.852;2022-08-01T15:30:05;5.25;;;3.72;;
21727;SDS011;11026;50.560;17.852;2022-08-01T15:32:33;4.00;;;3.60;;
21727;SDS011;11026;50.560;17.852;2022-08-01T15:35:01;5.60;;;3.80;;
21727;SDS011;11026;50.560;17.852;2022-08-01T15:37:30;4.72;;;4.22;;
21727;SDS011;11026;50.560;17.852;2022-08-01T15:39:59;4.70;;;4.30;;
21727;SDS011;11026;50.560;17.852;2022-08-01T15:45:05;5.38;;;4.78;;
21727;SDS011;11026;50.560;17.852;2022-08-01T15:47:52;5.05;;;4.65;;
21727;SDS011;11026;50.560;17.852;2022-08-01T15:50:27;5.80;;;5.20;;
21727;SDS011;11026;50.560;17.852;2022-08-01T15:55:34;5.60;;;5.03;;
21727;SDS011;11026;50.560;17.852;2022-08-01T16:00:45;6.55;;;5.15;;
21727;SDS011;11026;50.560;17.852;2022-08-01T16:03:19;5.78;;;5.18;;
21727;SDS011;11026;50.560;17.852;2022-08-01T16:05:56;7.13;;;5.60;;
21727;SDS011;11026;50.560;17.852;2022-08-01T16:08:39;5.65;;;4.72;;
21727;SDS011;11026;50.560;17.852;2022-08-01T16:11:10;5.07;;;4.68;;
21727;SDS011;11026;50.560;17.852;2022-08-01T16:13:37;5.75;;;5.30;;
21727;SDS011;11026;50.560;17.852;2022-08-01T16:16:06;4.90;;;4.50;;
21727;SDS011;11026;50.560;17.852;2022-08-01T16:18:38;6.55;;;5.05;;
21727;SDS011;11026;50.560;17.852;2022-08-01T16:21:05;4.97;;;4.25;;
21727;SDS011;11026;50.560;17.852;2022-08-01T16:23:37;6.80;;;4.95;;
21727;SDS011;11026;50.560;17.852;2022-08-01T16:26:06;5.90;;;4.75;;
21727;SDS011;11026;50.560;17.852;2022-08-01T16:28:53;6.60;;;4.80;;
21727;SDS011;11026;50.560;17.852;2022-08-01T16:34:29;5.30;;;4.55;;
21727;SDS011;11026;50.560;17.852;2022-08-01T16:39:34;4.53;;;4.05;;
21727;SDS011;11026;50.560;17.852;2022-08-01T16:42:02;4.45;;;4.05;;
21727;SDS011;11026;50.560;17.852;2022-08-01T16:44:29;5.63;;;4.88;;
21727;SDS011;11026;50.560;17.852;2022-08-01T16:47:10;5.82;;;5.32;;
21727;SDS011;11026;50.560;17.852;2022-08-01T16:55:34;4.75;;;4.25;;
21727;SDS011;11026;50.560;17.852;2022-08-01T17:01:00;6.10;;;5.60;;
21727;SDS011;11026;50.560;17.852;2022-08-01T17:03:48;5.93;;;5.40;;
21727;SDS011;11026;50.560;17.852;2022-08-01T17:06:21;6.13;;;5.60;;
21727;SDS011;11026;50.560;17.852;2022-08-01T17:08:48;5.72;;;5.20;;
21727;SDS011;11026;50.560;17.852;2022-08-01T17:13:57;5.22;;;4.75;;
21727;SDS011;11026;50.560;17.852;2022-08-01T17:16:32;6.90;;;6.13;;
21727;SDS011;11026;50.560;17.852;2022-08-01T17:19:16;7.07;;;6.50;;
21727;SDS011;11026;50.560;17.852;2022-08-01T17:21:53;7.75;;;7.07;;
21727;SDS011;11026;50.560;17.852;2022-08-01T17:38:22;6.35;;;5.30;;
21727;SDS011;11026;50.560;17.852;2022-08-01T17:43:31;6.70;;;5.47;;
21727;SDS011;11026;50.560;17.852;2022-08-01T17:46:01;6.97;;;5.45;;
21727;SDS011;11026;50.560;17.852;2022-08-01T17:48:29;6.03;;;5.43;;
21727;SDS011;11026;50.560;17.852;2022-08-01T17:51:10;6.72;;;6.10;;
21727;SDS011;11026;50.560;17.852;2022-08-01T17:53:47;8.98;;;8.07;;
21727;SDS011;11026;50.560;17.852;2022-08-01T17:59:13;7.38;;;6.78;;
21727;SDS011;11026;50.560;17.852;2022-08-01T18:01:47;6.97;;;6.18;;
21727;SDS011;11026;50.560;17.852;2022-08-01T18:04:16;7.93;;;6.22;;
21727;SDS011;11026;50.560;17.852;2022-08-01T18:09:51;8.23;;;6.20;;
21727;SDS011;11026;50.560;17.852;2022-08-01T18:14:52;5.50;;;5.00;;
21727;SDS011;11026;50.560;17.852;2022-08-01T18:17:22;5.38;;;4.57;;
21727;SDS011;11026;50.560;17.852;2022-08-01T18:19:51;5.63;;;4.93;;
21727;SDS011;11026;50.560;17.852;2022-08-01T18:22:18;5.25;;;4.80;;
21727;SDS011;11026;50.560;17.852;2022-08-01T18:25:02;6.88;;;4.47;;
21727;SDS011;11026;50.560;17.852;2022-08-01T18:27:34;5.50;;;5.05;;
21727;SDS011;11026;50.560;17.852;2022-08-01T18:35:49;6.18;;;5.57;;
21727;SDS011;11026;50.560;17.852;2022-08-01T18:38:19;5.90;;;5.40;;
21727;SDS011;11026;50.560;17.852;2022-08-01T18:40:49;5.90;;;5.20;;
21727;SDS011;11026;50.560;17.852;2022-08-01T18:43:17;8.55;;;5.43;;
21727;SDS011;11026;50.560;17.852;2022-08-01T18:45:58;5.93;;;5.32;;
21727;SDS011;11026;50.560;17.852;2022-08-01T18:48:26;8.18;;;5.22;;
21727;SDS011;11026;50.560;17.852;2022-08-01T18:50:56;6.18;;;5.57;;
21727;SDS011;11026;50.560;17.852;2022-08-01T18:53:27;5.90;;;5.40;;
21727;SDS011;11026;50.560;17.852;2022-08-01T18:58:25;7.05;;;6.45;;
21727;SDS011;11026;50.560;17.852;2022-08-01T19:00:52;7.10;;;6.50;;
21727;SDS011;11026;50.560;17.852;2022-08-01T19:06:02;7.50;;;6.80;;
21727;SDS011;11026;50.560;17.852;2022-08-01T19:11:01;8.30;;;7.50;;
21727;SDS011;11026;50.560;17.852;2022-08-01T19:13:29;8.50;;;7.78;;
21727;SDS011;11026;50.560;17.852;2022-08-01T19:15:57;9.45;;;8.52;;
21727;SDS011;11026;50.560;17.852;2022-08-01T19:18:25;9.93;;;9.02;;
21727;SDS011;11026;50.560;17.852;2022-08-01T19:23:34;9.02;;;8.18;;
21727;SDS011;11026;50.560;17.852;2022-08-01T19:26:21;9.48;;;7.55;;
21727;SDS011;11026;50.560;17.852;2022-08-01T19:29:08;7.35;;;6.60;;
21727;SDS011;11026;50.560;17.852;2022-08-01T19:31:42;7.13;;;6.30;;
21727;SDS011;11026;50.560;17.852;2022-08-01T19:34:21;8.13;;;5.97;;
21727;SDS011;11026;50.560;17.852;2022-08-01T19:36:54;6.28;;;5.78;;
21727;SDS011;11026;50.560;17.852;2022-08-01T19:39:23;6.60;;;6.10;;
21727;SDS011;11026;50.560;17.852;2022-08-01T19:44:30;7.35;;;6.65;;
21727;SDS011;11026;50.560;17.852;2022-08-01T19:46:58;7.82;;;6.88;;
21727;SDS011;11026;50.560;17.852;2022-08-01T19:49:27;7.25;;;6.55;;
21727;SDS011;11026;50.560;17.852;2022-08-01T19:52:02;6.47;;;5.95;;
21727;SDS011;11026;50.560;17.852;2022-08-01T19:54:34;7.15;;;6.45;;
21727;SDS011;11026;50.560;17.852;2022-08-01T19:57:05;7.32;;;6.63;;
21727;SDS011;11026;50.560;17.852;2022-08-01T19:59:36;7.57;;;6.88;;
21727;SDS011;11026;50.560;17.852;2022-08-01T20:02:04;6.40;;;5.82;;
21727;SDS011;11026;50.560;17.852;2022-08-01T20:04:41;6.05;;;5.45;;
21727;SDS011;11026;50.560;17.852;2022-08-01T20:12:31;5.28;;;4.43;;
21727;SDS011;11026;50.560;17.852;2022-08-01T20:15:00;6.40;;;5.80;;
21727;SDS011;11026;50.560;17.852;2022-08-01T20:17:28;6.25;;;5.75;;
21727;SDS011;11026;50.560;17.852;2022-08-01T20:20:08;6.03;;;5.05;;
21727;SDS011;11026;50.560;17.852;2022-08-01T20:22:36;7.55;;;6.80;;
21727;SDS011;11026;50.560;17.852;2022-08-01T20:25:13;6.75;;;6.05;;
21727;SDS011;11026;50.560;17.852;2022-08-01T20:27:45;5.90;;;5.40;;
21727;SDS011;11026;50.560;17.852;2022-08-01T20:30:14;5.82;;;5.32;;
21727;SDS011;11026;50.560;17.852;2022-08-01T20:32:45;6.00;;;4.78;;
21727;SDS011;11026;50.560;17.852;2022-08-01T20:35:15;4.85;;;3.85;;
21727;SDS011;11026;50.560;17.852;2022-08-01T20:38:03;4.43;;;4.07;;
21727;SDS011;11026;50.560;17.852;2022-08-01T20:40:36;5.32;;;4.00;;
21727;SDS011;11026;50.560;17.852;2022-08-01T20:45:46;4.10;;;3.70;;
21727;SDS011;11026;50.560;17.852;2022-08-01T20:48:17;4.07;;;3.78;;
21727;SDS011;11026;50.560;17.852;2022-08-01T20:50:46;3.83;;;3.53;;
21727;SDS011;11026;50.560;17.852;2022-08-01T20:53:34;5.97;;;3.72;;
21727;SDS011;11026;50.560;17.852;2022-08-01T20:56:09;3.80;;;3.38;;
21727;SDS011;11026;50.560;17.852;2022-08-01T20:58:59;3.83;;;3.53;;